sensor_id;sensor_type;location;lat;lon;timestamp;pressure;altitude;pressure_sealevel;temperature;humidity
72118;BME280;59992;47.490;8.736;2022-09-13T00:01:04;96338.75;;;12.66;86.75
72118;BME280;59992;47.490;8.736;2022-09-13T00:03:52;96336.79;;;12.70;86.22
72118;BME280;59992;47.490;8.736;2022-09-13T00:06:40;96329.19;;;12.75;85.69
72118;BME280;59992;47.490;8.736;2022-09-13T00:09:28;96321.05;;;12.74;86.25
72118;BME280;59992;47.490;8.736;2022-09-13T00:12:17;96322.42;;;12.70;88.78
72118;BME280;59992;47.490;8.736;2022-09-13T00:15:06;96315.51;;;12.65;88.23
72118;BME280;59992;47.490;8.736;2022-09-13T00:17:55;96312.62;;;12.61;88.58
72118;BME280;59992;47.490;8.736;2022-09-13T00:20:44;96313.22;;;12.58;88.74
72118;BME280;59992;47.490;8.736;2022-09-13T00:23:32;96315.80;;;12.55;89.95
72118;BME280;59992;47.490;8.736;2022-09-13T00:26:22;96320.66;;;12.55;88.93
72118;BME280;59992;47.490;8.736;2022-09-13T00:29:11;96321.19;;;12.52;88.84
72118;BME280;59992;47.490;8.736;2022-09-13T00:31:59;96321.19;;;12.54;87.80
72118;BME280;59992;47.490;8.736;2022-09-13T00:34:47;96318.30;;;12.54;87.06
72118;BME280;59992;47.490;8.736;2022-09-13T00:37:36;96319.36;;;12.53;87.53
72118;BME280;59992;47.490;8.736;2022-09-13T00:40:26;96306.30;;;12.42;88.60
72118;BME280;59992;47.490;8.736;2022-09-13T00:43:18;96310.70;;;12.47;87.88
72118;BME280;59992;47.490;8.736;2022-09-13T00:46:08;96308.49;;;12.41;88.86
72118;BME280;59992;47.490;8.736;2022-09-13T00:49:00;96304.52;;;12.35;89.92
72118;BME280;59992;47.490;8.736;2022-09-13T00:51:53;96303.61;;;12.33;89.49
72118;BME280;59992;47.490;8.736;2022-09-13T00:54:46;96303.91;;;12.30;89.13
72118;BME280;59992;47.490;8.736;2022-09-13T00:57:37;96306.26;;;12.29;90.22
72118;BME280;59992;47.490;8.736;2022-09-13T01:00:28;96304.98;;;12.28;90.57
72118;BME280;59992;47.490;8.736;2022-09-13T01:03:18;96310.06;;;12.28;90.35
72118;BME280;59992;47.490;8.736;2022-09-13T01:06:10;96311.95;;;12.29;89.08
72118;BME280;59992;47.490;8.736;2022-09-13T01:09:01;96306.27;;;12.29;88.14
72118;BME280;59992;47.490;8.736;2022-09-13T01:11:54;96307.39;;;12.26;89.15
72118;BME280;59992;47.490;8.736;2022-09-13T01:14:47;96308.98;;;12.25;88.60
72118;BME280;59992;47.490;8.736;2022-09-13T01:17:38;96309.37;;;12.22;89.13
72118;BME280;59992;47.490;8.736;2022-09-13T01:20:36;96304.35;;;12.20;88.95
72118;BME280;59992;47.490;8.736;2022-09-13T01:23:54;96307.08;;;12.16;88.63
72118;BME280;59992;47.490;8.736;2022-09-13T01:30:11;96311.73;;;12.03;89.61
72118;BME280;59992;47.490;8.736;2022-09-13T01:33:25;96314.45;;;12.01;90.55
72118;BME280;59992;47.490;8.736;2022-09-13T01:36:33;96316.42;;;12.00;90.64
72118;BME280;59992;47.490;8.736;2022-09-13T01:39:37;96315.90;;;12.01;90.18
72118;BME280;59992;47.490;8.736;2022-09-13T01:42:40;96309.90;;;11.99;89.14
72118;BME280;59992;47.490;8.736;2022-09-13T01:45:38;96315.90;;;12.02;88.51
72118;BME280;59992;47.490;8.736;2022-09-13T01:48:35;96310.29;;;12.01;88.48
72118;BME280;59992;47.490;8.736;2022-09-13T01:51:33;96300.70;;;11.94;88.62
72118;BME280;59992;47.490;8.736;2022-09-13T01:54:30;96305.79;;;11.94;88.39
72118;BME280;59992;47.490;8.736;2022-09-13T01:57:27;96311.02;;;11.94;88.13
72118;BME280;59992;47.490;8.736;2022-09-13T02:00:18;96315.80;;;11.93;89.59
72118;BME280;59992;47.490;8.736;2022-09-13T02:03:09;96314.58;;;11.90;89.91
72118;BME280;59992;47.490;8.736;2022-09-13T02:06:03;96316.61;;;11.89;89.07
72118;BME280;59992;47.490;8.736;2022-09-13T02:08:55;96312.89;;;11.88;88.35
72118;BME280;59992;47.490;8.736;2022-09-13T02:11:47;96311.90;;;11.85;89.38
72118;BME280;59992;47.490;8.736;2022-09-13T02:14:39;96311.50;;;11.81;89.64
72118;BME280;59992;47.490;8.736;2022-09-13T02:17:34;96312.63;;;11.77;89.43
72118;BME280;59992;47.490;8.736;2022-09-13T02:20:27;96317.55;;;11.75;90.34
72118;BME280;59992;47.490;8.736;2022-09-13T02:23:19;96316.78;;;11.73;90.20
72118;BME280;59992;47.490;8.736;2022-09-13T02:26:12;96322.02;;;11.72;91.26
72118;BME280;59992;47.490;8.736;2022-09-13T02:29:06;96322.23;;;11.73;90.63
72118;BME280;59992;47.490;8.736;2022-09-13T02:31:57;96318.52;;;11.75;90.11
72118;BME280;59992;47.490;8.736;2022-09-13T02:34:50;96315.58;;;11.75;89.01
72118;BME280;59992;47.490;8.736;2022-09-13T02:37:42;96301.25;;;11.63;89.86
72118;BME280;59992;47.490;8.736;2022-09-13T02:40:38;96314.55;;;11.67;89.56
72118;BME280;59992;47.490;8.736;2022-09-13T02:43:31;96302.35;;;11.55;89.78
72118;BME280;59992;47.490;8.736;2022-09-13T02:46:34;96319.08;;;11.65;90.25
72118;BME280;59992;47.490;8.736;2022-09-13T02:49:32;96315.77;;;11.67;89.25
72118;BME280;59992;47.490;8.736;2022-09-13T02:52:33;96313.59;;;11.71;90.46
72118;BME280;59992;47.490;8.736;2022-09-13T02:55:32;96313.60;;;11.75;89.64
72118;BME280;59992;47.490;8.736;2022-09-13T02:58:26;96309.59;;;11.76;89.04
72118;BME280;59992;47.490;8.736;2022-09-13T03:01:17;96311.04;;;11.78;88.21
72118;BME280;59992;47.490;8.736;2022-09-13T03:04:08;96307.23;;;11.76;88.14
72118;BME280;59992;47.490;8.736;2022-09-13T03:06:56;96310.30;;;11.67;89.91
72118;BME280;59992;47.490;8.736;2022-09-13T03:09:47;96306.30;;;11.62;90.94
72118;BME280;59992;47.490;8.736;2022-09-13T03:12:54;96303.56;;;11.58;91.19
72118;BME280;59992;47.490;8.736;2022-09-13T03:15:57;96296.50;;;11.56;90.63
72118;BME280;59992;47.490;8.736;2022-09-13T03:19:00;96291.35;;;11.55;89.56
72118;BME280;59992;47.490;8.736;2022-09-13T03:22:01;96286.62;;;11.54;88.67
72118;BME280;59992;47.490;8.736;2022-09-13T03:25:01;96287.91;;;11.52;88.53
72118;BME280;59992;47.490;8.736;2022-09-13T03:27:56;96288.73;;;11.49;88.67
72118;BME280;59992;47.490;8.736;2022-09-13T03:30:51;96280.27;;;11.40;88.81
72118;BME280;59992;47.490;8.736;2022-09-13T03:33:47;96284.84;;;11.44;89.63
72118;BME280;59992;47.490;8.736;2022-09-13T03:36:43;96289.31;;;11.44;89.87
72118;BME280;59992;47.490;8.736;2022-09-13T03:39:35;96293.94;;;11.44;89.33
72118;BME280;59992;47.490;8.736;2022-09-13T03:42:32;96293.86;;;11.47;88.87
72118;BME280;59992;47.490;8.736;2022-09-13T03:45:26;96292.05;;;11.47;89.40
72118;BME280;59992;47.490;8.736;2022-09-13T03:48:16;96302.91;;;11.52;89.36
72118;BME280;59992;47.490;8.736;2022-09-13T03:51:06;96303.68;;;11.52;89.40
72118;BME280;59992;47.490;8.736;2022-09-13T03:53:56;96307.30;;;11.49;89.90
72118;BME280;59992;47.490;8.736;2022-09-13T03:57:10;96307.45;;;11.49;89.78
72118;BME280;59992;47.490;8.736;2022-09-13T03:59:59;96307.98;;;11.48;89.65
72118;BME280;59992;47.490;8.736;2022-09-13T04:02:47;96309.02;;;11.46;89.12
72118;BME280;59992;47.490;8.736;2022-09-13T04:05:36;96299.52;;;11.39;88.99
72118;BME280;59992;47.490;8.736;2022-09-13T04:08:24;96309.85;;;11.42;90.47
72118;BME280;59992;47.490;8.736;2022-09-13T04:11:13;96308.61;;;11.39;90.24
72118;BME280;59992;47.490;8.736;2022-09-13T04:14:01;96307.31;;;11.36;90.66
72118;BME280;59992;47.490;8.736;2022-09-13T04:16:50;96304.79;;;11.34;90.42
72118;BME280;59992;47.490;8.736;2022-09-13T04:19:39;96308.34;;;11.31;91.02
72118;BME280;59992;47.490;8.736;2022-09-13T04:22:27;96297.32;;;11.25;91.20
72118;BME280;59992;47.490;8.736;2022-09-13T04:25:16;96304.77;;;11.29;90.23
72118;BME280;59992;47.490;8.736;2022-09-13T04:28:04;96309.84;;;11.26;90.51
72118;BME280;59992;47.490;8.736;2022-09-13T04:30:53;96315.58;;;11.24;91.20
72118;BME280;59992;47.490;8.736;2022-09-13T04:33:41;96323.31;;;11.24;90.55
72118;BME280;59992;47.490;8.736;2022-09-13T04:36:29;96325.80;;;11.23;89.99
72118;BME280;59992;47.490;8.736;2022-09-13T04:39:19;96324.96;;;11.23;89.47
72118;BME280;59992;47.490;8.736;2022-09-13T04:42:08;96321.96;;;11.26;89.45
72118;BME280;59992;47.490;8.736;2022-09-13T04:44:58;96327.58;;;11.27;90.08
72118;BME280;59992;47.490;8.736;2022-09-13T04:47:51;96331.29;;;11.27;90.27
72118;BME280;59992;47.490;8.736;2022-09-13T04:50:40;96332.96;;;11.28;90.11
72118;BME280;59992;47.490;8.736;2022-09-13T04:53:29;96336.10;;;11.33;89.94
72118;BME280;59992;47.490;8.736;2022-09-13T04:56:17;96340.20;;;11.36;89.58
72118;BME280;59992;47.490;8.736;2022-09-13T04:59:06;96336.36;;;11.37;89.14
72118;BME280;59992;47.490;8.736;2022-09-13T05:01:54;96331.95;;;11.37;89.56
72118;BME280;59992;47.490;8.736;2022-09-13T05:04:43;96335.21;;;11.36;90.09
72118;BME280;59992;47.490;8.736;2022-09-13T05:07:32;96334.21;;;11.33;91.51
72118;BME280;59992;47.490;8.736;2022-09-13T05:10:20;96341.94;;;11.33;91.92
72118;BME280;59992;47.490;8.736;2022-09-13T05:13:08;96339.30;;;11.33;90.94
72118;BME280;59992;47.490;8.736;2022-09-13T05:15:58;96342.79;;;11.35;90.21
72118;BME280;59992;47.490;8.736;2022-09-13T05:18:46;96339.70;;;11.36;91.00
72118;BME280;59992;47.490;8.736;2022-09-13T05:21:34;96341.43;;;11.37;91.16
72118;BME280;59992;47.490;8.736;2022-09-13T05:24:22;96342.30;;;11.41;90.54
72118;BME280;59992;47.490;8.736;2022-09-13T05:27:11;96349.45;;;11.47;89.54
72118;BME280;59992;47.490;8.736;2022-09-13T05:29:59;96353.74;;;11.52;90.05
72118;BME280;59992;47.490;8.736;2022-09-13T05:32:47;96352.94;;;11.57;89.50
72118;BME280;59992;47.490;8.736;2022-09-13T05:35:39;96352.10;;;11.57;90.77
72118;BME280;59992;47.490;8.736;2022-09-13T05:38:28;96355.30;;;11.61;89.85
72118;BME280;59992;47.490;8.736;2022-09-13T05:41:16;96351.94;;;11.66;90.07
72118;BME280;59992;47.490;8.736;2022-09-13T05:44:05;96354.86;;;11.70;91.00
72118;BME280;59992;47.490;8.736;2022-09-13T05:46:53;96360.05;;;11.80;91.64
72118;BME280;59992;47.490;8.736;2022-09-13T05:49:41;96355.79;;;12.09;90.37
72118;BME280;59992;47.490;8.736;2022-09-13T05:52:30;96351.96;;;12.25;90.53
72118;BME280;59992;47.490;8.736;2022-09-13T05:55:18;96349.12;;;12.39;90.01
72118;BME280;59992;47.490;8.736;2022-09-13T05:58:07;96343.89;;;12.52;89.90
72118;BME280;59992;47.490;8.736;2022-09-13T06:00:56;96341.41;;;12.69;89.29
72118;BME280;59992;47.490;8.736;2022-09-13T06:03:47;96333.89;;;13.27;88.81
72118;BME280;59992;47.490;8.736;2022-09-13T06:06:36;96341.38;;;14.39;84.50
72118;BME280;59992;47.490;8.736;2022-09-13T06:09:24;96342.17;;;15.40;80.92
72118;BME280;59992;47.490;8.736;2022-09-13T06:12:13;96335.20;;;16.38;77.21
72118;BME280;59992;47.490;8.736;2022-09-13T06:15:02;96331.14;;;17.30;73.03
72118;BME280;59992;47.490;8.736;2022-09-13T06:17:50;96329.38;;;18.10;68.52
72118;BME280;59992;47.490;8.736;2022-09-13T06:20:38;96334.06;;;18.78;66.34
72118;BME280;59992;47.490;8.736;2022-09-13T06:23:27;96334.38;;;19.45;67.08
72118;BME280;59992;47.490;8.736;2022-09-13T06:26:17;96332.66;;;20.12;61.38
72118;BME280;59992;47.490;8.736;2022-09-13T06:29:05;96332.30;;;20.65;60.94
72118;BME280;59992;47.490;8.736;2022-09-13T06:31:53;96333.35;;;21.17;58.72
72118;BME280;59992;47.490;8.736;2022-09-13T06:34:42;96327.55;;;21.60;56.63
72118;BME280;59992;47.490;8.736;2022-09-13T06:37:30;96321.67;;;22.05;58.55
72118;BME280;59992;47.490;8.736;2022-09-13T06:40:18;96315.58;;;22.59;57.12
72118;BME280;59992;47.490;8.736;2022-09-13T06:43:07;96304.13;;;23.03;56.29
72118;BME280;59992;47.490;8.736;2022-09-13T06:46:00;96302.69;;;23.41;51.55
72118;BME280;59992;47.490;8.736;2022-09-13T06:48:48;96296.71;;;23.61;51.83
72118;BME280;59992;47.490;8.736;2022-09-13T06:51:36;96297.31;;;23.76;50.67
72118;BME280;59992;47.490;8.736;2022-09-13T06:54:25;96300.11;;;23.70;49.70
72118;BME280;59992;47.490;8.736;2022-09-13T06:57:13;96305.69;;;23.91;49.79
72118;BME280;59992;47.490;8.736;2022-09-13T07:00:02;96298.46;;;24.04;48.80
72118;BME280;59992;47.490;8.736;2022-09-13T07:02:51;96297.30;;;24.21;49.11
72118;BME280;59992;47.490;8.736;2022-09-13T07:05:40;96295.27;;;24.26;49.75
72118;BME280;59992;47.490;8.736;2022-09-13T07:08:28;96295.85;;;24.34;49.50
72118;BME280;59992;47.490;8.736;2022-09-13T07:11:18;96297.46;;;24.41;48.70
72118;BME280;59992;47.490;8.736;2022-09-13T07:14:07;96299.32;;;24.41;48.33
72118;BME280;59992;47.490;8.736;2022-09-13T07:16:55;96296.48;;;24.45;48.09
72118;BME280;59992;47.490;8.736;2022-09-13T07:19:43;96295.30;;;24.47;48.87
72118;BME280;59992;47.490;8.736;2022-09-13T07:22:32;96290.36;;;24.37;49.14
72118;BME280;59992;47.490;8.736;2022-09-13T07:25:20;96293.74;;;24.49;49.33
72118;BME280;59992;47.490;8.736;2022-09-13T07:28:08;96291.96;;;24.40;48.98
72118;BME280;59992;47.490;8.736;2022-09-13T07:31:02;96293.01;;;24.47;49.37
72118;BME280;59992;47.490;8.736;2022-09-13T07:33:54;96293.36;;;24.57;48.85
72118;BME280;59992;47.490;8.736;2022-09-13T07:36:43;96289.66;;;24.72;48.21
72118;BME280;59992;47.490;8.736;2022-09-13T07:39:33;96286.70;;;24.84;49.24
72118;BME280;59992;47.490;8.736;2022-09-13T07:42:21;96283.05;;;24.81;47.84
72118;BME280;59992;47.490;8.736;2022-09-13T07:45:10;96286.38;;;24.87;49.03
72118;BME280;59992;47.490;8.736;2022-09-13T07:47:59;96285.64;;;24.75;47.82
72118;BME280;59992;47.490;8.736;2022-09-13T07:50:57;96278.80;;;24.82;48.54
72118;BME280;59992;47.490;8.736;2022-09-13T07:53:47;96276.77;;;24.90;48.91
72118;BME280;59992;47.490;8.736;2022-09-13T07:56:37;96278.44;;;25.01;49.17
72118;BME280;59992;47.490;8.736;2022-09-13T07:59:25;96279.29;;;24.82;48.84
72118;BME280;59992;47.490;8.736;2022-09-13T08:02:15;96285.23;;;24.96;49.03
72118;BME280;59992;47.490;8.736;2022-09-13T08:05:06;96292.35;;;24.95;48.29
72118;BME280;59992;47.490;8.736;2022-09-13T08:07:54;96298.08;;;25.02;48.24
72118;BME280;59992;47.490;8.736;2022-09-13T08:10:42;96299.09;;;25.05;47.13
72118;BME280;59992;47.490;8.736;2022-09-13T08:13:31;96299.20;;;25.11;46.77
72118;BME280;59992;47.490;8.736;2022-09-13T08:16:20;96297.18;;;25.06;48.52
72118;BME280;59992;47.490;8.736;2022-09-13T08:19:12;96291.61;;;25.15;48.82
72118;BME280;59992;47.490;8.736;2022-09-13T08:22:01;96292.92;;;25.22;49.21
72118;BME280;59992;47.490;8.736;2022-09-13T08:24:49;96290.98;;;25.26;48.63
72118;BME280;59992;47.490;8.736;2022-09-13T08:27:38;96292.13;;;25.32;49.36
72118;BME280;59992;47.490;8.736;2022-09-13T08:30:27;96284.12;;;25.59;46.35
72118;BME280;59992;47.490;8.736;2022-09-13T08:33:19;96282.52;;;25.66;46.87
72118;BME280;59992;47.490;8.736;2022-09-13T08:36:08;96275.93;;;25.70;47.64
72118;BME280;59992;47.490;8.736;2022-09-13T08:38:57;96272.87;;;25.84;47.10
72118;BME280;59992;47.490;8.736;2022-09-13T08:42:17;96270.88;;;26.02;45.63
72118;BME280;59992;47.490;8.736;2022-09-13T08:45:08;96265.23;;;25.93;46.70
72118;BME280;59992;47.490;8.736;2022-09-13T08:48:00;96266.11;;;26.07;45.55
72118;BME280;59992;47.490;8.736;2022-09-13T08:50:51;96265.69;;;26.08;48.09
72118;BME280;59992;47.490;8.736;2022-09-13T08:53:44;96256.57;;;26.14;48.03
72118;BME280;59992;47.490;8.736;2022-09-13T08:56:40;96260.80;;;25.94;47.00
72118;BME280;59992;47.490;8.736;2022-09-13T08:59:41;96263.33;;;25.83;47.29
72118;BME280;59992;47.490;8.736;2022-09-13T09:02:49;96256.88;;;25.93;45.67
72118;BME280;59992;47.490;8.736;2022-09-13T09:05:45;96255.83;;;25.89;47.39
72118;BME280;59992;47.490;8.736;2022-09-13T09:08:39;96255.70;;;25.99;45.33
72118;BME280;59992;47.490;8.736;2022-09-13T09:11:33;96257.39;;;25.80;46.66
72118;BME280;59992;47.490;8.736;2022-09-13T09:14:28;96259.06;;;25.58;48.49
72118;BME280;59992;47.490;8.736;2022-09-13T09:17:21;96265.33;;;25.37;46.54
72118;BME280;59992;47.490;8.736;2022-09-13T09:20:22;96270.77;;;25.27;48.98
72118;BME280;59992;47.490;8.736;2022-09-13T09:23:15;96271.31;;;25.29;50.25
72118;BME280;59992;47.490;8.736;2022-09-13T09:26:14;96270.02;;;25.16;50.60
72118;BME280;59992;47.490;8.736;2022-09-13T09:29:12;96271.90;;;25.19;48.30
72118;BME280;59992;47.490;8.736;2022-09-13T09:32:11;96273.55;;;25.19;47.83
72118;BME280;59992;47.490;8.736;2022-09-13T09:35:13;96276.80;;;25.17;47.67
72118;BME280;59992;47.490;8.736;2022-09-13T09:41:29;96268.90;;;25.20;47.43
72118;BME280;59992;47.490;8.736;2022-09-13T09:44:20;96263.74;;;25.16;47.98
72118;BME280;59992;47.490;8.736;2022-09-13T09:47:14;96258.83;;;25.03;48.74
72118;BME280;59992;47.490;8.736;2022-09-13T09:50:09;96249.42;;;24.94;49.33
72118;BME280;59992;47.490;8.736;2022-09-13T09:53:03;96245.45;;;24.83;49.44
72118;BME280;59992;47.490;8.736;2022-09-13T09:55:57;96248.36;;;24.80;49.58
72118;BME280;59992;47.490;8.736;2022-09-13T09:58:47;96242.20;;;24.78;49.47
72118;BME280;59992;47.490;8.736;2022-09-13T10:01:37;96242.34;;;24.74;49.79
72118;BME280;59992;47.490;8.736;2022-09-13T10:04:27;96231.10;;;24.65;49.74
72118;BME280;59992;47.490;8.736;2022-09-13T10:07:27;96234.05;;;24.63;50.28
72118;BME280;59992;47.490;8.736;2022-09-13T10:10:22;96233.83;;;24.54;50.69
72118;BME280;59992;47.490;8.736;2022-09-13T10:13:17;96227.48;;;24.42;50.54
72118;BME280;59992;47.490;8.736;2022-09-13T10:16:24;96225.94;;;24.42;51.11
72118;BME280;59992;47.490;8.736;2022-09-13T10:19:23;96220.05;;;24.39;51.27
72118;BME280;59992;47.490;8.736;2022-09-13T10:22:12;96219.37;;;24.35;50.95
72118;BME280;59992;47.490;8.736;2022-09-13T10:25:22;96213.90;;;24.33;51.90
72118;BME280;59992;47.490;8.736;2022-09-13T10:28:13;96207.41;;;24.34;51.39
72118;BME280;59992;47.490;8.736;2022-09-13T10:31:06;96204.92;;;24.35;52.05
72118;BME280;59992;47.490;8.736;2022-09-13T10:33:58;96199.27;;;24.35;51.31
72118;BME280;59992;47.490;8.736;2022-09-13T10:36:52;96194.80;;;24.34;54.25
72118;BME280;59992;47.490;8.736;2022-09-13T10:39:53;96187.64;;;24.37;53.50
72118;BME280;59992;47.490;8.736;2022-09-13T10:42:50;96182.40;;;24.34;53.56
72118;BME280;59992;47.490;8.736;2022-09-13T10:45:40;96180.40;;;24.39;53.41
72118;BME280;59992;47.490;8.736;2022-09-13T10:48:42;96183.70;;;24.48;53.45
72118;BME280;59992;47.490;8.736;2022-09-13T10:51:35;96181.54;;;24.55;54.19
72118;BME280;59992;47.490;8.736;2022-09-13T10:54:25;96183.44;;;24.64;52.65
72118;BME280;59992;47.490;8.736;2022-09-13T10:57:31;96185.35;;;24.68;52.30
72118;BME280;59992;47.490;8.736;2022-09-13T11:00:21;96181.30;;;24.73;51.66
72118;BME280;59992;47.490;8.736;2022-09-13T11:03:25;96174.69;;;24.80;51.40
72118;BME280;59992;47.490;8.736;2022-09-13T11:06:23;96169.71;;;24.95;51.46
72118;BME280;59992;47.490;8.736;2022-09-13T11:09:17;96167.36;;;25.06;50.96
72118;BME280;59992;47.490;8.736;2022-09-13T11:12:12;96171.42;;;25.22;51.26
72118;BME280;59992;47.490;8.736;2022-09-13T11:15:14;96166.02;;;25.34;50.77
72118;BME280;59992;47.490;8.736;2022-09-13T11:18:31;96160.71;;;25.45;49.51
72118;BME280;59992;47.490;8.736;2022-09-13T11:21:37;96161.48;;;25.60;48.70
72118;BME280;59992;47.490;8.736;2022-09-13T11:24:43;96154.71;;;25.75;49.91
72118;BME280;59992;47.490;8.736;2022-09-13T11:27:46;96151.38;;;25.92;49.62
72118;BME280;59992;47.490;8.736;2022-09-13T11:30:56;96154.52;;;26.03;50.26
72118;BME280;59992;47.490;8.736;2022-09-13T11:33:59;96151.41;;;26.05;49.57
72118;BME280;59992;47.490;8.736;2022-09-13T11:37:09;96141.59;;;26.10;51.44
72118;BME280;59992;47.490;8.736;2022-09-13T11:40:27;96135.19;;;26.21;50.94
72118;BME280;59992;47.490;8.736;2022-09-13T11:43:32;96127.13;;;26.31;50.64
72118;BME280;59992;47.490;8.736;2022-09-13T11:46:28;96124.10;;;26.41;49.88
72118;BME280;59992;47.490;8.736;2022-09-13T11:49:43;96120.69;;;26.49;48.84
72118;BME280;59992;47.490;8.736;2022-09-13T11:52:43;96119.57;;;26.57;48.90
72118;BME280;59992;47.490;8.736;2022-09-13T11:55:40;96107.63;;;26.63;48.98
72118;BME280;59992;47.490;8.736;2022-09-13T11:58:35;96103.38;;;26.70;48.01
72118;BME280;59992;47.490;8.736;2022-09-13T12:01:28;96094.30;;;26.75;48.39
72118;BME280;59992;47.490;8.736;2022-09-13T12:04:22;96095.04;;;26.80;49.77
72118;BME280;59992;47.490;8.736;2022-09-13T12:07:28;96092.27;;;26.81;48.73
72118;BME280;59992;47.490;8.736;2022-09-13T12:10:22;96096.23;;;26.81;49.04
72118;BME280;59992;47.490;8.736;2022-09-13T12:13:15;96099.51;;;26.81;48.37
72118;BME280;59992;47.490;8.736;2022-09-13T12:16:08;96101.52;;;26.85;49.24
72118;BME280;59992;47.490;8.736;2022-09-13T12:18:59;96098.52;;;26.92;48.25
72118;BME280;59992;47.490;8.736;2022-09-13T12:21:51;96092.41;;;26.93;48.00
72118;BME280;59992;47.490;8.736;2022-09-13T12:24:42;96086.15;;;26.96;51.20
72118;BME280;59992;47.490;8.736;2022-09-13T12:27:37;96087.42;;;26.89;54.13
72118;BME280;59992;47.490;8.736;2022-09-13T12:30:30;96087.38;;;26.64;55.50
72118;BME280;59992;47.490;8.736;2022-09-13T12:33:20;96084.43;;;26.43;56.22
72118;BME280;59992;47.490;8.736;2022-09-13T12:36:38;96081.68;;;26.32;56.72
72118;BME280;59992;47.490;8.736;2022-09-13T12:39:42;96080.27;;;26.20;58.45
72118;BME280;59992;47.490;8.736;2022-09-13T12:42:59;96078.46;;;26.17;58.84
72118;BME280;59992;47.490;8.736;2022-09-13T12:46:27;96072.27;;;26.12;59.57
72118;BME280;59992;47.490;8.736;2022-09-13T12:49:34;96066.64;;;26.16;59.51
72118;BME280;59992;47.490;8.736;2022-09-13T12:52:32;96069.33;;;26.26;58.51
72118;BME280;59992;47.490;8.736;2022-09-13T12:55:35;96065.73;;;26.34;58.54
72118;BME280;59992;47.490;8.736;2022-09-13T12:58:48;96058.00;;;26.31;57.83
72118;BME280;59992;47.490;8.736;2022-09-13T13:01:46;96054.67;;;26.43;51.50
72118;BME280;59992;47.490;8.736;2022-09-13T13:04:35;96052.00;;;26.59;51.22
72118;BME280;59992;47.490;8.736;2022-09-13T13:07:24;96051.33;;;26.77;50.88
72118;BME280;59992;47.490;8.736;2022-09-13T13:10:24;96051.28;;;26.96;50.71
72118;BME280;59992;47.490;8.736;2022-09-13T13:13:17;96040.63;;;26.98;49.65
72118;BME280;59992;47.490;8.736;2022-09-13T13:16:26;96044.99;;;27.16;50.44
72118;BME280;59992;47.490;8.736;2022-09-13T13:19:29;96040.64;;;27.27;50.40
72118;BME280;59992;47.490;8.736;2022-09-13T13:22:49;96036.59;;;27.37;50.90
72118;BME280;59992;47.490;8.736;2022-09-13T13:25:55;96044.09;;;27.45;52.00
72118;BME280;59992;47.490;8.736;2022-09-13T13:32:11;96046.48;;;27.54;51.69
72118;BME280;59992;47.490;8.736;2022-09-13T13:35:27;96045.44;;;27.61;50.72
72118;BME280;59992;47.490;8.736;2022-09-13T13:38:35;96041.56;;;27.65;49.81
72118;BME280;59992;47.490;8.736;2022-09-13T13:41:39;96042.98;;;27.69;50.26
72118;BME280;59992;47.490;8.736;2022-09-13T13:45:05;96048.09;;;27.72;49.62
72118;BME280;59992;47.490;8.736;2022-09-13T13:48:06;96047.06;;;27.67;49.57
72118;BME280;59992;47.490;8.736;2022-09-13T13:51:19;96047.48;;;27.62;50.13
72118;BME280;59992;47.490;8.736;2022-09-13T13:54:29;96047.83;;;27.62;49.54
72118;BME280;59992;47.490;8.736;2022-09-13T13:57:23;96048.86;;;27.62;49.87
72118;BME280;59992;47.490;8.736;2022-09-13T14:00:13;96046.83;;;27.59;50.75
72118;BME280;59992;47.490;8.736;2022-09-13T14:03:11;96049.15;;;27.61;50.24
72118;BME280;59992;47.490;8.736;2022-09-13T14:06:10;96048.98;;;27.57;49.93
72118;BME280;59992;47.490;8.736;2022-09-13T14:09:11;96044.25;;;27.53;50.26
72118;BME280;59992;47.490;8.736;2022-09-13T14:12:31;96045.20;;;27.48;51.64
72118;BME280;59992;47.490;8.736;2022-09-13T14:15:36;96040.89;;;27.42;51.33
72118;BME280;59992;47.490;8.736;2022-09-13T14:18:51;96032.34;;;27.36;50.54
72118;BME280;59992;47.490;8.736;2022-09-13T14:21:45;96030.55;;;27.27;49.90
72118;BME280;59992;47.490;8.736;2022-09-13T14:24:37;96026.47;;;27.19;50.68
72118;BME280;59992;47.490;8.736;2022-09-13T14:27:28;96026.67;;;27.15;49.88
72118;BME280;59992;47.490;8.736;2022-09-13T14:30:20;96016.71;;;27.08;52.83
72118;BME280;59992;47.490;8.736;2022-09-13T14:33:21;96011.99;;;26.95;52.02
72118;BME280;59992;47.490;8.736;2022-09-13T14:36:17;96008.14;;;26.89;53.26
72118;BME280;59992;47.490;8.736;2022-09-13T14:39:08;96006.09;;;26.88;51.13
72118;BME280;59992;47.490;8.736;2022-09-13T14:42:02;96000.02;;;26.85;50.48
72118;BME280;59992;47.490;8.736;2022-09-13T14:44:58;96000.32;;;26.90;50.24
72118;BME280;59992;47.490;8.736;2022-09-13T14:47:51;95997.48;;;26.88;49.64
72118;BME280;59992;47.490;8.736;2022-09-13T14:50:47;95994.74;;;26.91;49.60
72118;BME280;59992;47.490;8.736;2022-09-13T14:53:39;95986.20;;;26.87;52.11
72118;BME280;59992;47.490;8.736;2022-09-13T14:56:34;95983.04;;;26.82;52.34
72118;BME280;59992;47.490;8.736;2022-09-13T14:59:28;95975.04;;;26.73;51.96
72118;BME280;59992;47.490;8.736;2022-09-13T15:02:20;95973.64;;;26.64;50.45
72118;BME280;59992;47.490;8.736;2022-09-13T15:05:13;95974.21;;;26.57;55.44
72118;BME280;59992;47.490;8.736;2022-09-13T15:08:27;95975.67;;;26.41;56.20
72118;BME280;59992;47.490;8.736;2022-09-13T15:11:30;95970.45;;;26.21;58.24
72118;BME280;59992;47.490;8.736;2022-09-13T15:14:23;95964.33;;;26.02;59.37
72118;BME280;59992;47.490;8.736;2022-09-13T15:17:13;95970.73;;;25.78;59.92
72118;BME280;59992;47.490;8.736;2022-09-13T15:20:04;95971.62;;;25.61;60.14
72118;BME280;59992;47.490;8.736;2022-09-13T15:22:53;95961.94;;;25.34;59.91
72118;BME280;59992;47.490;8.736;2022-09-13T15:25:47;95967.17;;;25.19;60.05
72118;BME280;59992;47.490;8.736;2022-09-13T15:28:47;95975.48;;;25.01;60.14
72118;BME280;59992;47.490;8.736;2022-09-13T15:31:36;95975.88;;;24.84;60.23
72118;BME280;59992;47.490;8.736;2022-09-13T15:34:25;95978.29;;;24.70;60.44